sensor_id;sensor_type;location;lat;lon;timestamp;temperature;humidity
39951;DHT22;25629;51.444;-2.606;2024-03-02T00:00:52;4.90;99.90
39951;DHT22;25629;51.444;-2.606;2024-03-02T00:03:18;4.90;99.90
39951;DHT22;25629;51.444;-2.606;2024-03-02T00:05:44;4.90;99.90
39951;DHT22;25629;51.444;-2.606;2024-03-02T00:08:13;5.00;99.90
39951;DHT22;25629;51.444;-2.606;2024-03-02T00:10:42;5.00;99.90
39951;DHT22;25629;51.444;-2.606;2024-03-02T00:13:08;5.00;99.90
39951;DHT22;25629;51.444;-2.606;2024-03-02T00:17:59;5.00;99.90
39951;DHT22;25629;51.444;-2.606;2024-03-02T00:20:25;5.00;99.90
39951;DHT22;25629;51.444;-2.606;2024-03-02T00:22:55;5.00;99.90
39951;DHT22;25629;51.444;-2.606;2024-03-02T00:25:25;5.00;99.90
39951;DHT22;25629;51.444;-2.606;2024-03-02T00:27:51;5.00;99.90
39951;DHT22;25629;51.444;-2.606;2024-03-02T00:33:00;5.00;99.90
39951;DHT22;25629;51.444;-2.606;2024-03-02T00:35:26;5.00;99.90
39951;DHT22;25629;51.444;-2.606;2024-03-02T00:37:52;5.00;99.90
39951;DHT22;25629;51.444;-2.606;2024-03-02T00:40:17;5.00;99.90
39951;DHT22;25629;51.444;-2.606;2024-03-02T00:42:44;4.90;99.90
39951;DHT22;25629;51.444;-2.606;2024-03-02T00:45:10;4.90;99.90
39951;DHT22;25629;51.444;-2.606;2024-03-02T00:47:39;4.90;99.90
39951;DHT22;25629;51.444;-2.606;2024-03-02T00:50:05;5.00;99.90
39951;DHT22;25629;51.444;-2.606;2024-03-02T00:52:31;5.00;99.90
39951;DHT22;25629;51.444;-2.606;2024-03-02T00:54:58;5.00;99.90
39951;DHT22;25629;51.444;-2.606;2024-03-02T00:57:24;5.00;99.90
39951;DHT22;25629;51.444;-2.606;2024-03-02T00:59:51;5.10;99.90
39951;DHT22;25629;51.444;-2.606;2024-03-02T01:02:17;5.10;99.90
39951;DHT22;25629;51.444;-2.606;2024-03-02T01:04:42;5.10;99.90
39951;DHT22;25629;51.444;-2.606;2024-03-02T01:07:08;5.10;99.90
39951;DHT22;25629;51.444;-2.606;2024-03-02T01:09:33;5.10;99.90
39951;DHT22;25629;51.444;-2.606;2024-03-02T01:11:59;5.10;99.90
39951;DHT22;25629;51.444;-2.606;2024-03-02T01:14:25;5.10;99.90
39951;DHT22;25629;51.444;-2.606;2024-03-02T01:16:50;5.10;99.90
39951;DHT22;25629;51.444;-2.606;2024-03-02T01:19:16;5.10;99.90
39951;DHT22;25629;51.444;-2.606;2024-03-02T01:21:42;5.20;99.90
39951;DHT22;25629;51.444;-2.606;2024-03-02T01:24:07;5.10;99.90
39951;DHT22;25629;51.444;-2.606;2024-03-02T01:26:33;5.20;99.90
39951;DHT22;25629;51.444;-2.606;2024-03-02T01:28:59;5.20;99.90
39951;DHT22;25629;51.444;-2.606;2024-03-02T01:31:24;5.20;99.90
39951;DHT22;25629;51.444;-2.606;2024-03-02T01:33:50;5.20;99.90
39951;DHT22;25629;51.444;-2.606;2024-03-02T01:36:15;5.20;99.90
39951;DHT22;25629;51.444;-2.606;2024-03-02T01:38:41;5.20;99.90
39951;DHT22;25629;51.444;-2.606;2024-03-02T01:41:07;5.20;99.90
39951;DHT22;25629;51.444;-2.606;2024-03-02T01:43:32;5.20;99.90
39951;DHT22;25629;51.444;-2.606;2024-03-02T01:45:58;5.30;99.90
39951;DHT22;25629;51.444;-2.606;2024-03-02T01:48:24;5.30;99.90
39951;DHT22;25629;51.444;-2.606;2024-03-02T01:50:49;5.30;99.90
39951;DHT22;25629;51.444;-2.606;2024-03-02T01:53:15;5.40;99.90
39951;DHT22;25629;51.444;-2.606;2024-03-02T01:55:41;5.30;99.90
39951;DHT22;25629;51.444;-2.606;2024-03-02T01:58:07;5.30;99.90
39951;DHT22;25629;51.444;-2.606;2024-03-02T02:00:32;5.30;99.90
39951;DHT22;25629;51.444;-2.606;2024-03-02T02:02:58;5.30;99.90
39951;DHT22;25629;51.444;-2.606;2024-03-02T02:05:24;5.30;99.90
39951;DHT22;25629;51.444;-2.606;2024-03-02T02:07:49;5.30;99.90
39951;DHT22;25629;51.444;-2.606;2024-03-02T02:10:15;5.30;99.90
39951;DHT22;25629;51.444;-2.606;2024-03-02T02:12:41;5.30;99.90
39951;DHT22;25629;51.444;-2.606;2024-03-02T02:17:47;5.30;99.90
39951;DHT22;25629;51.444;-2.606;2024-03-02T02:20:13;5.30;99.90
39951;DHT22;25629;51.444;-2.606;2024-03-02T02:22:39;5.30;99.90
39951;DHT22;25629;51.444;-2.606;2024-03-02T02:25:05;5.30;99.90
39951;DHT22;25629;51.444;-2.606;2024-03-02T02:27:30;5.30;99.90
39951;DHT22;25629;51.444;-2.606;2024-03-02T02:29:56;5.40;99.90
39951;DHT22;25629;51.444;-2.606;2024-03-02T02:32:21;5.40;99.90
39951;DHT22;25629;51.444;-2.606;2024-03-02T02:34:51;5.40;99.90
39951;DHT22;25629;51.444;-2.606;2024-03-02T02:37:17;5.40;99.90
39951;DHT22;25629;51.444;-2.606;2024-03-02T02:39:43;5.40;99.90
39951;DHT22;25629;51.444;-2.606;2024-03-02T02:42:09;5.40;99.90
39951;DHT22;25629;51.444;-2.606;2024-03-02T02:44:34;5.30;99.90
39951;DHT22;25629;51.444;-2.606;2024-03-02T02:47:00;5.30;99.90
39951;DHT22;25629;51.444;-2.606;2024-03-02T02:49:25;5.30;99.90
39951;DHT22;25629;51.444;-2.606;2024-03-02T02:51:51;5.30;99.90
39951;DHT22;25629;51.444;-2.606;2024-03-02T02:54:17;5.30;99.90
39951;DHT22;25629;51.444;-2.606;2024-03-02T02:56:43;5.30;99.90
39951;DHT22;25629;51.444;-2.606;2024-03-02T02:59:08;5.30;99.90
39951;DHT22;25629;51.444;-2.606;2024-03-02T03:01:34;5.30;99.90
39951;DHT22;25629;51.444;-2.606;2024-03-02T03:03:59;5.30;99.90
39951;DHT22;25629;51.444;-2.606;2024-03-02T03:06:25;5.30;99.90
39951;DHT22;25629;51.444;-2.606;2024-03-02T03:08:51;5.40;99.90
39951;DHT22;25629;51.444;-2.606;2024-03-02T03:11:16;5.40;99.90
39951;DHT22;25629;51.444;-2.606;2024-03-02T03:13:42;5.40;99.90
39951;DHT22;25629;51.444;-2.606;2024-03-02T03:16:08;5.40;99.90
39951;DHT22;25629;51.444;-2.606;2024-03-02T03:18:33;5.40;99.90
39951;DHT22;25629;51.444;-2.606;2024-03-02T03:20:59;5.40;99.90
39951;DHT22;25629;51.444;-2.606;2024-03-02T03:23:24;5.40;99.90
39951;DHT22;25629;51.444;-2.606;2024-03-02T03:25:51;5.50;99.90
39951;DHT22;25629;51.444;-2.606;2024-03-02T03:28:16;5.50;99.90
39951;DHT22;25629;51.444;-2.606;2024-03-02T03:30:42;5.40;99.90
39951;DHT22;25629;51.444;-2.606;2024-03-02T03:33:08;5.40;99.90
39951;DHT22;25629;51.444;-2.606;2024-03-02T03:35:34;5.40;99.90
39951;DHT22;25629;51.444;-2.606;2024-03-02T03:38:00;5.40;99.90
39951;DHT22;25629;51.444;-2.606;2024-03-02T03:40:26;5.40;99.90
39951;DHT22;25629;51.444;-2.606;2024-03-02T03:42:51;5.40;99.90
39951;DHT22;25629;51.444;-2.606;2024-03-02T03:45:17;5.40;99.90
39951;DHT22;25629;51.444;-2.606;2024-03-02T03:47:43;5.40;99.90
39951;DHT22;25629;51.444;-2.606;2024-03-02T03:50:08;5.40;99.90
39951;DHT22;25629;51.444;-2.606;2024-03-02T03:52:34;5.40;99.90
39951;DHT22;25629;51.444;-2.606;2024-03-02T03:55:00;5.40;99.90
39951;DHT22;25629;51.444;-2.606;2024-03-02T03:57:26;5.30;99.90
39951;DHT22;25629;51.444;-2.606;2024-03-02T03:59:52;5.30;99.90
39951;DHT22;25629;51.444;-2.606;2024-03-02T04:02:18;5.30;99.90
39951;DHT22;25629;51.444;-2.606;2024-03-02T04:04:43;5.30;99.90
39951;DHT22;25629;51.444;-2.606;2024-03-02T04:07:09;5.30;99.90
39951;DHT22;25629;51.444;-2.606;2024-03-02T04:09:34;5.30;99.90
39951;DHT22;25629;51.444;-2.606;2024-03-02T04:12:00;5.30;99.90
39951;DHT22;25629;51.444;-2.606;2024-03-02T04:14:26;5.30;99.90
39951;DHT22;25629;51.444;-2.606;2024-03-02T04:16:54;5.20;99.90
39951;DHT22;25629;51.444;-2.606;2024-03-02T04:19:20;5.30;99.90
39951;DHT22;25629;51.444;-2.606;2024-03-02T04:21:46;5.30;99.90
39951;DHT22;25629;51.444;-2.606;2024-03-02T04:24:12;5.20;99.90
39951;DHT22;25629;51.444;-2.606;2024-03-02T04:26:37;5.20;99.90
39951;DHT22;25629;51.444;-2.606;2024-03-02T04:29:03;5.00;99.90
39951;DHT22;25629;51.444;-2.606;2024-03-02T04:31:28;4.90;99.90
39951;DHT22;25629;51.444;-2.606;2024-03-02T04:33:54;4.90;99.90
39951;DHT22;25629;51.444;-2.606;2024-03-02T04:36:19;4.80;99.90
39951;DHT22;25629;51.444;-2.606;2024-03-02T04:38:46;4.70;99.90
39951;DHT22;25629;51.444;-2.606;2024-03-02T04:41:11;4.70;99.90
39951;DHT22;25629;51.444;-2.606;2024-03-02T04:43:37;4.70;99.90
39951;DHT22;25629;51.444;-2.606;2024-03-02T04:46:03;4.60;99.90
39951;DHT22;25629;51.444;-2.606;2024-03-02T04:48:28;4.60;99.90
39951;DHT22;25629;51.444;-2.606;2024-03-02T04:50:54;4.50;99.90
39951;DHT22;25629;51.444;-2.606;2024-03-02T04:53:20;4.50;99.90
39951;DHT22;25629;51.444;-2.606;2024-03-02T04:55:45;4.40;99.90
39951;DHT22;25629;51.444;-2.606;2024-03-02T04:58:31;4.40;99.90
39951;DHT22;25629;51.444;-2.606;2024-03-02T05:00:56;4.40;99.90
39951;DHT22;25629;51.444;-2.606;2024-03-02T05:03:22;4.30;99.90
39951;DHT22;25629;51.444;-2.606;2024-03-02T05:05:47;4.20;99.90
39951;DHT22;25629;51.444;-2.606;2024-03-02T05:08:13;4.10;99.90
39951;DHT22;25629;51.444;-2.606;2024-03-02T05:10:39;4.10;99.90
39951;DHT22;25629;51.444;-2.606;2024-03-02T05:13:05;3.90;99.90
39951;DHT22;25629;51.444;-2.606;2024-03-02T05:15:30;3.80;99.90
39951;DHT22;25629;51.444;-2.606;2024-03-02T05:17:57;3.60;99.90
39951;DHT22;25629;51.444;-2.606;2024-03-02T05:20:23;3.50;99.90
39951;DHT22;25629;51.444;-2.606;2024-03-02T05:22:48;3.40;99.90
39951;DHT22;25629;51.444;-2.606;2024-03-02T05:25:15;3.30;99.90
39951;DHT22;25629;51.444;-2.606;2024-03-02T05:27:40;3.30;99.90
39951;DHT22;25629;51.444;-2.606;2024-03-02T05:30:06;3.20;99.90
39951;DHT22;25629;51.444;-2.606;2024-03-02T05:32:33;3.10;99.90
39951;DHT22;25629;51.444;-2.606;2024-03-02T05:34:58;3.10;99.90
39951;DHT22;25629;51.444;-2.606;2024-03-02T05:37:24;3.10;99.90
39951;DHT22;25629;51.444;-2.606;2024-03-02T05:39:49;3.00;99.90
39951;DHT22;25629;51.444;-2.606;2024-03-02T05:42:15;3.10;99.90
39951;DHT22;25629;51.444;-2.606;2024-03-02T05:44:42;3.20;99.90
39951;DHT22;25629;51.444;-2.606;2024-03-02T05:47:07;3.30;99.90
39951;DHT22;25629;51.444;-2.606;2024-03-02T05:49:34;3.30;99.90
39951;DHT22;25629;51.444;-2.606;2024-03-02T05:52:00;3.30;99.90
39951;DHT22;25629;51.444;-2.606;2024-03-02T05:54:25;3.30;99.90
39951;DHT22;25629;51.444;-2.606;2024-03-02T05:56:51;3.30;99.90
39951;DHT22;25629;51.444;-2.606;2024-03-02T05:59:16;3.30;99.90
39951;DHT22;25629;51.444;-2.606;2024-03-02T06:01:43;3.40;99.90
39951;DHT22;25629;51.444;-2.606;2024-03-02T06:04:09;3.40;99.90
39951;DHT22;25629;51.444;-2.606;2024-03-02T06:06:36;3.40;99.90
39951;DHT22;25629;51.444;-2.606;2024-03-02T06:09:02;3.40;99.90
39951;DHT22;25629;51.444;-2.606;2024-03-02T06:11:30;3.40;99.90
39951;DHT22;25629;51.444;-2.606;2024-03-02T06:13:56;3.40;99.90
39951;DHT22;25629;51.444;-2.606;2024-03-02T06:16:21;3.50;99.90
39951;DHT22;25629;51.444;-2.606;2024-03-02T06:18:47;3.40;99.90
39951;DHT22;25629;51.444;-2.606;2024-03-02T06:21:13;3.40;99.90
39951;DHT22;25629;51.444;-2.606;2024-03-02T06:23:38;3.30;99.90
39951;DHT22;25629;51.444;-2.606;2024-03-02T06:26:04;3.30;99.90
39951;DHT22;25629;51.444;-2.606;2024-03-02T06:28:29;3.20;99.90
39951;DHT22;25629;51.444;-2.606;2024-03-02T06:30:55;3.20;99.90
39951;DHT22;25629;51.444;-2.606;2024-03-02T06:33:20;3.20;99.90
39951;DHT22;25629;51.444;-2.606;2024-03-02T06:35:46;3.10;99.90
39951;DHT22;25629;51.444;-2.606;2024-03-02T06:38:12;3.20;99.90
39951;DHT22;25629;51.444;-2.606;2024-03-02T06:40:37;3.20;99.90
39951;DHT22;25629;51.444;-2.606;2024-03-02T06:43:04;3.10;99.90
39951;DHT22;25629;51.444;-2.606;2024-03-02T06:45:30;3.20;99.90
39951;DHT22;25629;51.444;-2.606;2024-03-02T06:47:56;3.30;99.90
39951;DHT22;25629;51.444;-2.606;2024-03-02T06:50:21;3.30;99.90
39951;DHT22;25629;51.444;-2.606;2024-03-02T06:52:47;3.30;99.90
39951;DHT22;25629;51.444;-2.606;2024-03-02T06:55:13;3.30;99.90
39951;DHT22;25629;51.444;-2.606;2024-03-02T06:57:38;3.30;99.90
39951;DHT22;25629;51.444;-2.606;2024-03-02T07:00:04;3.30;99.90
39951;DHT22;25629;51.444;-2.606;2024-03-02T07:02:30;3.30;99.90
39951;DHT22;25629;51.444;-2.606;2024-03-02T07:04:56;3.20;99.90
39951;DHT22;25629;51.444;-2.606;2024-03-02T07:07:21;3.20;99.90
39951;DHT22;25629;51.444;-2.606;2024-03-02T07:09:47;3.30;99.90
39951;DHT22;25629;51.444;-2.606;2024-03-02T07:12:13;3.30;99.90
39951;DHT22;25629;51.444;-2.606;2024-03-02T07:14:39;3.30;99.90
39951;DHT22;25629;51.444;-2.606;2024-03-02T07:17:23;3.40;99.90
39951;DHT22;25629;51.444;-2.606;2024-03-02T07:19:49;3.40;99.90
39951;DHT22;25629;51.444;-2.606;2024-03-02T07:22:15;3.40;99.90
39951;DHT22;25629;51.444;-2.606;2024-03-02T07:24:41;3.40;99.90
39951;DHT22;25629;51.444;-2.606;2024-03-02T07:27:07;3.50;99.90
39951;DHT22;25629;51.444;-2.606;2024-03-02T07:29:33;3.50;99.90
39951;DHT22;25629;51.444;-2.606;2024-03-02T07:31:58;3.60;99.90
39951;DHT22;25629;51.444;-2.606;2024-03-02T07:34:24;3.70;99.90
39951;DHT22;25629;51.444;-2.606;2024-03-02T07:36:49;3.70;99.90
39951;DHT22;25629;51.444;-2.606;2024-03-02T07:39:15;3.80;99.90
39951;DHT22;25629;51.444;-2.606;2024-03-02T07:41:41;3.90;99.90
39951;DHT22;25629;51.444;-2.606;2024-03-02T07:44:07;3.90;99.90
39951;DHT22;25629;51.444;-2.606;2024-03-02T07:46:32;3.90;99.90
39951;DHT22;25629;51.444;-2.606;2024-03-02T07:48:58;4.00;99.90
39951;DHT22;25629;51.444;-2.606;2024-03-02T07:51:24;4.00;99.90
39951;DHT22;25629;51.444;-2.606;2024-03-02T07:53:49;4.10;99.90
39951;DHT22;25629;51.444;-2.606;2024-03-02T07:56:15;4.20;99.90
39951;DHT22;25629;51.444;-2.606;2024-03-02T07:58:47;4.20;99.90
39951;DHT22;25629;51.444;-2.606;2024-03-02T08:01:14;4.30;99.90
39951;DHT22;25629;51.444;-2.606;2024-03-02T08:03:40;4.20;99.90
39951;DHT22;25629;51.444;-2.606;2024-03-02T08:06:06;4.20;99.90
39951;DHT22;25629;51.444;-2.606;2024-03-02T08:08:31;4.30;99.90
39951;DHT22;25629;51.444;-2.606;2024-03-02T08:10:57;4.40;99.90
39951;DHT22;25629;51.444;-2.606;2024-03-02T08:13:23;4.50;99.90
39951;DHT22;25629;51.444;-2.606;2024-03-02T08:15:48;4.50;99.90
39951;DHT22;25629;51.444;-2.606;2024-03-02T08:18:14;4.50;99.90
39951;DHT22;25629;51.444;-2.606;2024-03-02T08:20:40;4.50;99.90
39951;DHT22;25629;51.444;-2.606;2024-03-02T08:23:05;4.60;99.90
39951;DHT22;25629;51.444;-2.606;2024-03-02T08:25:31;4.60;99.90
39951;DHT22;25629;51.444;-2.606;2024-03-02T08:27:57;4.70;99.90
39951;DHT22;25629;51.444;-2.606;2024-03-02T08:30:23;4.80;99.90
39951;DHT22;25629;51.444;-2.606;2024-03-02T08:32:48;4.90;99.90
39951;DHT22;25629;51.444;-2.606;2024-03-02T08:35:14;4.80;99.90
39951;DHT22;25629;51.444;-2.606;2024-03-02T08:37:41;4.80;99.90
39951;DHT22;25629;51.444;-2.606;2024-03-02T08:40:07;4.80;99.90
39951;DHT22;25629;51.444;-2.606;2024-03-02T08:42:33;4.90;99.90
39951;DHT22;25629;51.444;-2.606;2024-03-02T08:44:59;5.00;99.90
39951;DHT22;25629;51.444;-2.606;2024-03-02T08:47:26;5.10;99.90
39951;DHT22;25629;51.444;-2.606;2024-03-02T08:49:52;5.20;99.90
39951;DHT22;25629;51.444;-2.606;2024-03-02T08:52:18;5.20;99.90
39951;DHT22;25629;51.444;-2.606;2024-03-02T08:54:44;5.10;99.90
39951;DHT22;25629;51.444;-2.606;2024-03-02T08:57:09;5.10;99.90
39951;DHT22;25629;51.444;-2.606;2024-03-02T08:59:35;5.00;99.90
39951;DHT22;25629;51.444;-2.606;2024-03-02T09:02:00;5.00;99.90
39951;DHT22;25629;51.444;-2.606;2024-03-02T09:04:27;5.10;99.90
39951;DHT22;25629;51.444;-2.606;2024-03-02T09:06:52;5.20;99.90
39951;DHT22;25629;51.444;-2.606;2024-03-02T09:09:18;5.20;99.90
39951;DHT22;25629;51.444;-2.606;2024-03-02T09:11:45;5.20;99.90
39951;DHT22;25629;51.444;-2.606;2024-03-02T09:14:11;5.10;99.90
39951;DHT22;25629;51.444;-2.606;2024-03-02T09:16:37;5.30;99.90
39951;DHT22;25629;51.444;-2.606;2024-03-02T09:19:03;5.30;99.90
39951;DHT22;25629;51.444;-2.606;2024-03-02T09:21:29;5.40;99.90
39951;DHT22;25629;51.444;-2.606;2024-03-02T09:23:55;5.40;99.90
39951;DHT22;25629;51.444;-2.606;2024-03-02T09:26:21;5.30;99.90
39951;DHT22;25629;51.444;-2.606;2024-03-02T09:28:47;5.20;99.90
39951;DHT22;25629;51.444;-2.606;2024-03-02T09:31:13;5.10;99.90
39951;DHT22;25629;51.444;-2.606;2024-03-02T09:33:39;5.10;99.90
39951;DHT22;25629;51.444;-2.606;2024-03-02T09:36:04;5.10;99.90
39951;DHT22;25629;51.444;-2.606;2024-03-02T09:38:33;5.10;99.90
39951;DHT22;25629;51.444;-2.606;2024-03-02T09:40:59;5.10;99.90
39951;DHT22;25629;51.444;-2.606;2024-03-02T09:43:25;5.20;99.90
39951;DHT22;25629;51.444;-2.606;2024-03-02T09:45:51;5.30;99.90
39951;DHT22;25629;51.444;-2.606;2024-03-02T09:48:17;5.30;99.90
39951;DHT22;25629;51.444;-2.606;2024-03-02T09:50:45;5.30;99.90
39951;DHT22;25629;51.444;-2.606;2024-03-02T09:53:11;5.30;99.90
39951;DHT22;25629;51.444;-2.606;2024-03-02T09:55:37;5.40;99.90
39951;DHT22;25629;51.444;-2.606;2024-03-02T09:58:04;5.40;99.90
39951;DHT22;25629;51.444;-2.606;2024-03-02T10:00:29;5.40;99.90
39951;DHT22;25629;51.444;-2.606;2024-03-02T10:02:55;5.30;99.90
39951;DHT22;25629;51.444;-2.606;2024-03-02T10:05:24;5.30;99.90
39951;DHT22;25629;51.444;-2.606;2024-03-02T10:08:00;5.40;99.90
39951;DHT22;25629;51.444;-2.606;2024-03-02T10:10:40;5.50;99.90
39951;DHT22;25629;51.444;-2.606;2024-03-02T10:13:07;5.60;99.90
39951;DHT22;25629;51.444;-2.606;2024-03-02T10:15:33;5.60;99.90
39951;DHT22;25629;51.444;-2.606;2024-03-02T10:17:59;5.60;99.90
39951;DHT22;25629;51.444;-2.606;2024-03-02T10:20:25;5.60;99.90
39951;DHT22;25629;51.444;-2.606;2024-03-02T10:22:50;5.80;99.90
39951;DHT22;25629;51.444;-2.606;2024-03-02T10:25:32;6.00;99.90
39951;DHT22;25629;51.444;-2.606;2024-03-02T10:27:58;6.00;99.90
39951;DHT22;25629;51.444;-2.606;2024-03-02T10:30:25;6.00;99.90
39951;DHT22;25629;51.444;-2.606;2024-03-02T10:32:52;5.90;99.90
39951;DHT22;25629;51.444;-2.606;2024-03-02T10:35:18;5.90;99.90
39951;DHT22;25629;51.444;-2.606;2024-03-02T10:37:44;5.80;99.90
39951;DHT22;25629;51.444;-2.606;2024-03-02T10:40:10;5.80;99.90
39951;DHT22;25629;51.444;-2.606;2024-03-02T10:42:37;5.80;99.90
39951;DHT22;25629;51.444;-2.606;2024-03-02T10:45:03;5.90;99.90
39951;DHT22;25629;51.444;-2.606;2024-03-02T10:47:29;5.90;99.90
39951;DHT22;25629;51.444;-2.606;2024-03-02T10:49:56;5.90;99.90
39951;DHT22;25629;51.444;-2.606;2024-03-02T10:52:24;5.90;99.90
39951;DHT22;25629;51.444;-2.606;2024-03-02T10:54:50;5.80;99.90
39951;DHT22;25629;51.444;-2.606;2024-03-02T10:57:15;5.80;99.90
39951;DHT22;25629;51.444;-2.606;2024-03-02T10:59:56;5.60;99.90
39951;DHT22;25629;51.444;-2.606;2024-03-02T11:02:22;5.50;99.90
39951;DHT22;25629;51.444;-2.606;2024-03-02T11:04:49;5.40;99.90
39951;DHT22;25629;51.444;-2.606;2024-03-02T11:07:15;5.30;99.90
39951;DHT22;25629;51.444;-2.606;2024-03-02T11:09:45;5.20;99.90
39951;DHT22;25629;51.444;-2.606;2024-03-02T11:12:23;5.20;99.90
39951;DHT22;25629;51.444;-2.606;2024-03-02T11:14:49;5.30;99.90
39951;DHT22;25629;51.444;-2.606;2024-03-02T11:17:17;5.30;99.90
39951;DHT22;25629;51.444;-2.606;2024-03-02T11:19:43;5.40;99.90
39951;DHT22;25629;51.444;-2.606;2024-03-02T11:22:09;5.30;99.90
39951;DHT22;25629;51.444;-2.606;2024-03-02T11:24:35;5.20;99.90
39951;DHT22;25629;51.444;-2.606;2024-03-02T11:27:02;5.20;99.90
39951;DHT22;25629;51.444;-2.606;2024-03-02T11:32:01;5.10;99.90
39951;DHT22;25629;51.444;-2.606;2024-03-02T11:34:34;5.00;99.90
39951;DHT22;25629;51.444;-2.606;2024-03-02T11:37:03;4.90;99.90
39951;DHT22;25629;51.444;-2.606;2024-03-02T11:39:29;4.80;99.90
39951;DHT22;25629;51.444;-2.606;2024-03-02T11:41:55;4.70;99.90
39951;DHT22;25629;51.444;-2.606;2024-03-02T11:44:21;4.70;99.90
39951;DHT22;25629;51.444;-2.606;2024-03-02T11:46:51;4.80;99.90
39951;DHT22;25629;51.444;-2.606;2024-03-02T11:52:06;4.70;99.90
39951;DHT22;25629;51.444;-2.606;2024-03-02T11:54:33;4.70;99.90
39951;DHT22;25629;51.444;-2.606;2024-03-02T11:57:01;4.70;99.90
39951;DHT22;25629;51.444;-2.606;2024-03-02T11:59:27;4.70;99.90
39951;DHT22;25629;51.444;-2.606;2024-03-02T12:01:53;4.70;99.90
39951;DHT22;25629;51.444;-2.606;2024-03-02T12:04:19;4.70;99.90
39951;DHT22;25629;51.444;-2.606;2024-03-02T12:06:45;4.70;99.90
39951;DHT22;25629;51.444;-2.606;2024-03-02T12:09:12;4.70;99.90
39951;DHT22;25629;51.444;-2.606;2024-03-02T12:11:37;4.80;99.90
39951;DHT22;25629;51.444;-2.606;2024-03-02T12:14:03;4.90;99.90
39951;DHT22;25629;51.444;-2.606;2024-03-02T12:16:29;4.90;99.90
39951;DHT22;25629;51.444;-2.606;2024-03-02T12:18:55;4.90;99.90
39951;DHT22;25629;51.444;-2.606;2024-03-02T12:21:21;5.00;99.90
39951;DHT22;25629;51.444;-2.606;2024-03-02T12:23:46;5.20;99.90
39951;DHT22;25629;51.444;-2.606;2024-03-02T12:26:12;5.10;99.90
39951;DHT22;25629;51.444;-2.606;2024-03-02T12:28:38;5.10;99.90
39951;DHT22;25629;51.444;-2.606;2024-03-02T12:31:03;5.00;99.90
39951;DHT22;25629;51.444;-2.606;2024-03-02T12:33:29;5.10;99.90
39951;DHT22;25629;51.444;-2.606;2024-03-02T12:35:56;5.20;99.90
39951;DHT22;25629;51.444;-2.606;2024-03-02T12:38:22;5.20;99.90
39951;DHT22;25629;51.444;-2.606;2024-03-02T12:40:51;5.20;99.90
39951;DHT22;25629;51.444;-2.606;2024-03-02T12:43:17;5.30;99.90
39951;DHT22;25629;51.444;-2.606;2024-03-02T12:45:42;5.30;99.90
39951;DHT22;25629;51.444;-2.606;2024-03-02T12:48:08;5.20;99.90
39951;DHT22;25629;51.444;-2.606;2024-03-02T12:50:33;5.10;99.90
39951;DHT22;25629;51.444;-2.606;2024-03-02T12:52:59;5.10;99.90
39951;DHT22;25629;51.444;-2.606;2024-03-02T12:55:25;5.10;99.90
39951;DHT22;25629;51.444;-2.606;2024-03-02T12:57:51;5.10;99.90
39951;DHT22;25629;51.444;-2.606;2024-03-02T13:00:17;5.10;99.90
39951;DHT22;25629;51.444;-2.606;2024-03-02T13:02:45;5.10;99.90
39951;DHT22;25629;51.444;-2.606;2024-03-02T13:05:11;5.10;99.90
39951;DHT22;25629;51.444;-2.606;2024-03-02T13:07:39;5.00;99.90
39951;DHT22;25629;51.444;-2.606;2024-03-02T13:10:06;5.00;99.90
39951;DHT22;25629;51.444;-2.606;2024-03-02T13:12:34;5.00;99.90
39951;DHT22;25629;51.444;-2.606;2024-03-02T13:15:00;5.10;99.90
39951;DHT22;25629;51.444;-2.606;2024-03-02T13:17:28;5.20;99.90
39951;DHT22;25629;51.444;-2.606;2024-03-02T13:19:57;5.30;99.90
39951;DHT22;25629;51.444;-2.606;2024-03-02T13:22:23;5.40;99.90
39951;DHT22;25629;51.444;-2.606;2024-03-02T13:24:49;5.50;99.90
39951;DHT22;25629;51.444;-2.606;2024-03-02T13:27:14;5.40;99.90
39951;DHT22;25629;51.444;-2.606;2024-03-02T13:29:41;5.30;99.90
39951;DHT22;25629;51.444;-2.606;2024-03-02T13:32:07;5.40;99.90
39951;DHT22;25629;51.444;-2.606;2024-03-02T13:34:33;5.50;99.90
39951;DHT22;25629;51.444;-2.606;2024-03-02T13:36:59;5.60;99.90
39951;DHT22;25629;51.444;-2.606;2024-03-02T13:39:26;5.60;99.90
39951;DHT22;25629;51.444;-2.606;2024-03-02T13:41:52;5.60;99.90
39951;DHT22;25629;51.444;-2.606;2024-03-02T13:44:22;5.60;99.90
39951;DHT22;25629;51.444;-2.606;2024-03-02T13:46:48;5.50;99.90
39951;DHT22;25629;51.444;-2.606;2024-03-02T13:49:14;5.50;99.90
39951;DHT22;25629;51.444;-2.606;2024-03-02T13:51:40;5.50;99.90
39951;DHT22;25629;51.444;-2.606;2024-03-02T13:54:05;5.50;99.90
39951;DHT22;25629;51.444;-2.606;2024-03-02T13:56:31;5.60;99.90
39951;DHT22;25629;51.444;-2.606;2024-03-02T13:58:58;5.60;99.90
39951;DHT22;25629;51.444;-2.606;2024-03-02T14:01:23;5.80;99.90
39951;DHT22;25629;51.444;-2.606;2024-03-02T14:03:49;5.80;99.90
39951;DHT22;25629;51.444;-2.606;2024-03-02T14:06:15;6.00;99.90
39951;DHT22;25629;51.444;-2.606;2024-03-02T14:08:40;6.10;99.90
39951;DHT22;25629;51.444;-2.606;2024-03-02T14:11:10;6.30;99.90
39951;DHT22;25629;51.444;-2.606;2024-03-02T14:13:40;6.20;99.90
39951;DHT22;25629;51.444;-2.606;2024-03-02T14:16:06;6.10;99.90
39951;DHT22;25629;51.444;-2.606;2024-03-02T14:18:32;6.00;99.90
39951;DHT22;25629;51.444;-2.606;2024-03-02T14:20:57;6.10;99.90
39951;DHT22;25629;51.444;-2.606;2024-03-02T14:23:23;6.20;99.90
39951;DHT22;25629;51.444;-2.606;2024-03-02T14:25:48;6.30;99.90
39951;DHT22;25629;51.444;-2.606;2024-03-02T14:28:14;6.30;99.90
39951;DHT22;25629;51.444;-2.606;2024-03-02T14:30:41;6.20;99.90
39951;DHT22;25629;51.444;-2.606;2024-03-02T14:33:07;6.20;99.90
39951;DHT22;25629;51.444;-2.606;2024-03-02T14:35:33;6.10;99.90
39951;DHT22;25629;51.444;-2.606;2024-03-02T14:37:58;6.00;99.90
39951;DHT22;25629;51.444;-2.606;2024-03-02T14:40:24;6.10;99.90
39951;DHT22;25629;51.444;-2.606;2024-03-02T14:42:52;6.20;99.90
39951;DHT22;25629;51.444;-2.606;2024-03-02T14:45:18;6.20;99.90
39951;DHT22;25629;51.444;-2.606;2024-03-02T14:47:43;6.30;99.90
39951;DHT22;25629;51.444;-2.606;2024-03-02T14:50:09;6.40;99.90
39951;DHT22;25629;51.444;-2.606;2024-03-02T14:52:35;6.70;99.90
39951;DHT22;25629;51.444;-2.606;2024-03-02T14:55:01;6.60;91.70
39951;DHT22;25629;51.444;-2.606;2024-03-02T14:57:28;6.30;52.70
39951;DHT22;25629;51.444;-2.606;2024-03-02T14:59:53;6.30;94.30
39951;DHT22;25629;51.444;-2.606;2024-03-02T15:02:20;6.40;99.90
39951;DHT22;25629;51.444;-2.606;2024-03-02T15:04:45;6.40;99.90
39951;DHT22;25629;51.444;-2.606;2024-03-02T15:07:13;6.50;99.90
39951;DHT22;25629;51.444;-2.606;2024-03-02T15:09:38;6.50;99.90
39951;DHT22;25629;51.444;-2.606;2024-03-02T15:12:04;6.50;94.50
39951;DHT22;25629;51.444;-2.606;2024-03-02T15:14:31;6.40;90.20
39951;DHT22;25629;51.444;-2.606;2024-03-02T15:16:57;6.40;54.70
39951;DHT22;25629;51.444;-2.606;2024-03-02T15:19:22;6.50;68.20
39951;DHT22;25629;51.444;-2.606;2024-03-02T15:21:48;6.50;95.60
39951;DHT22;25629;51.444;-2.606;2024-03-02T15:24:14;6.70;99.90
39951;DHT22;25629;51.444;-2.606;2024-03-02T15:26:39;6.90;99.90
39951;DHT22;25629;51.444;-2.606;2024-03-02T15:29:05;7.30;96.10
39951;DHT22;25629;51.444;-2.606;2024-03-02T15:31:30;7.90;66.10
39951;DHT22;25629;51.444;-2.606;2024-03-02T15:33:56;8.20;99.90
39951;DHT22;25629;51.444;-2.606;2024-03-02T15:36:22;8.50;99.90